sensor_id;sensor_type;location;lat;lon;timestamp;P1;durP1;ratioP1;P2;durP2;ratioP2
82722;SDS011;72450;42.008;21.356;2024-02-14T00:00:18;6.20;;;4.30;;
82722;SDS011;72450;42.008;21.356;2024-02-14T00:02:46;6.30;;;4.78;;
82722;SDS011;72450;42.008;21.356;2024-02-14T00:05:15;6.00;;;4.03;;
82722;SDS011;72450;42.008;21.356;2024-02-14T00:07:41;6.72;;;4.93;;
82722;SDS011;72450;42.008;21.356;2024-02-14T00:10:08;8.57;;;5.47;;
82722;SDS011;72450;42.008;21.356;2024-02-14T00:12:34;5.97;;;4.47;;
82722;SDS011;72450;42.008;21.356;2024-02-14T00:15:01;10.45;;;5.00;;
82722;SDS011;72450;42.008;21.356;2024-02-14T00:17:28;6.85;;;4.28;;
82722;SDS011;72450;42.008;21.356;2024-02-14T00:19:54;6.57;;;3.90;;
82722;SDS011;72450;42.008;21.356;2024-02-14T00:22:20;7.88;;;4.15;;
82722;SDS011;72450;42.008;21.356;2024-02-14T00:24:46;11.23;;;5.75;;
82722;SDS011;72450;42.008;21.356;2024-02-14T00:27:13;10.98;;;5.57;;
82722;SDS011;72450;42.008;21.356;2024-02-14T00:29:42;13.13;;;6.32;;
82722;SDS011;72450;42.008;21.356;2024-02-14T00:32:10;14.65;;;6.18;;
82722;SDS011;72450;42.008;21.356;2024-02-14T00:34:36;5.10;;;3.67;;
82722;SDS011;72450;42.008;21.356;2024-02-14T00:37:02;8.13;;;4.95;;
82722;SDS011;72450;42.008;21.356;2024-02-14T00:39:29;8.35;;;4.32;;
82722;SDS011;72450;42.008;21.356;2024-02-14T00:41:55;10.93;;;5.38;;
82722;SDS011;72450;42.008;21.356;2024-02-14T00:44:21;13.13;;;6.72;;
82722;SDS011;72450;42.008;21.356;2024-02-14T00:46:47;8.75;;;4.97;;
82722;SDS011;72450;42.008;21.356;2024-02-14T00:49:14;7.07;;;4.53;;
82722;SDS011;72450;42.008;21.356;2024-02-14T00:51:40;7.63;;;4.50;;
82722;SDS011;72450;42.008;21.356;2024-02-14T00:54:06;7.32;;;4.63;;
82722;SDS011;72450;42.008;21.356;2024-02-14T00:56:33;7.53;;;5.38;;
82722;SDS011;72450;42.008;21.356;2024-02-14T00:58:59;18.30;;;7.60;;
82722;SDS011;72450;42.008;21.356;2024-02-14T01:01:25;6.47;;;4.72;;
82722;SDS011;72450;42.008;21.356;2024-02-14T01:03:52;8.25;;;5.03;;
82722;SDS011;72450;42.008;21.356;2024-02-14T01:06:18;9.85;;;5.32;;
82722;SDS011;72450;42.008;21.356;2024-02-14T01:08:45;7.25;;;4.75;;
82722;SDS011;72450;42.008;21.356;2024-02-14T01:11:11;14.82;;;6.00;;
82722;SDS011;72450;42.008;21.356;2024-02-14T01:13:37;8.05;;;4.70;;
82722;SDS011;72450;42.008;21.356;2024-02-14T01:16:03;9.27;;;4.50;;
82722;SDS011;72450;42.008;21.356;2024-02-14T01:18:30;7.95;;;4.78;;
82722;SDS011;72450;42.008;21.356;2024-02-14T01:20:57;7.30;;;4.60;;
82722;SDS011;72450;42.008;21.356;2024-02-14T01:23:26;11.98;;;5.15;;
82722;SDS011;72450;42.008;21.356;2024-02-14T01:25:53;6.80;;;4.68;;
82722;SDS011;72450;42.008;21.356;2024-02-14T01:28:22;6.50;;;4.43;;
82722;SDS011;72450;42.008;21.356;2024-02-14T01:30:48;7.40;;;4.50;;
82722;SDS011;72450;42.008;21.356;2024-02-14T01:33:15;5.82;;;3.58;;
82722;SDS011;72450;42.008;21.356;2024-02-14T01:35:41;8.68;;;5.32;;
82722;SDS011;72450;42.008;21.356;2024-02-14T01:38:07;9.95;;;5.45;;
82722;SDS011;72450;42.008;21.356;2024-02-14T01:40:33;9.95;;;5.10;;
82722;SDS011;72450;42.008;21.356;2024-02-14T01:42:59;7.88;;;5.15;;
82722;SDS011;72450;42.008;21.356;2024-02-14T01:45:26;8.85;;;4.68;;
82722;SDS011;72450;42.008;21.356;2024-02-14T01:47:52;7.30;;;4.38;;
82722;SDS011;72450;42.008;21.356;2024-02-14T01:50:20;12.70;;;5.28;;
82722;SDS011;72450;42.008;21.356;2024-02-14T01:52:53;9.38;;;5.40;;
82722;SDS011;72450;42.008;21.356;2024-02-14T01:55:20;11.25;;;4.60;;
82722;SDS011;72450;42.008;21.356;2024-02-14T01:57:47;8.82;;;4.95;;
82722;SDS011;72450;42.008;21.356;2024-02-14T02:00:13;6.57;;;4.20;;
82722;SDS011;72450;42.008;21.356;2024-02-14T02:02:43;7.63;;;5.03;;
82722;SDS011;72450;42.008;21.356;2024-02-14T02:05:09;11.15;;;5.55;;
82722;SDS011;72450;42.008;21.356;2024-02-14T02:07:35;7.53;;;4.50;;
82722;SDS011;72450;42.008;21.356;2024-02-14T02:10:05;12.32;;;5.20;;
82722;SDS011;72450;42.008;21.356;2024-02-14T02:12:31;9.75;;;4.63;;
82722;SDS011;72450;42.008;21.356;2024-02-14T02:14:57;12.73;;;6.35;;
82722;SDS011;72450;42.008;21.356;2024-02-14T02:17:24;11.85;;;5.05;;
82722;SDS011;72450;42.008;21.356;2024-02-14T02:19:53;9.57;;;4.97;;
82722;SDS011;72450;42.008;21.356;2024-02-14T02:22:19;9.77;;;5.28;;
82722;SDS011;72450;42.008;21.356;2024-02-14T02:24:46;5.75;;;3.22;;
82722;SDS011;72450;42.008;21.356;2024-02-14T02:27:12;11.60;;;4.03;;
82722;SDS011;72450;42.008;21.356;2024-02-14T02:29:41;7.68;;;4.72;;
82722;SDS011;72450;42.008;21.356;2024-02-14T02:32:07;6.72;;;4.10;;
82722;SDS011;72450;42.008;21.356;2024-02-14T02:34:35;8.55;;;3.25;;
82722;SDS011;72450;42.008;21.356;2024-02-14T02:37:04;5.95;;;3.50;;
82722;SDS011;72450;42.008;21.356;2024-02-14T02:39:34;5.10;;;2.78;;
82722;SDS011;72450;42.008;21.356;2024-02-14T02:42:02;4.68;;;2.80;;
82722;SDS011;72450;42.008;21.356;2024-02-14T02:44:28;7.82;;;2.53;;
82722;SDS011;72450;42.008;21.356;2024-02-14T02:46:54;5.72;;;3.00;;
82722;SDS011;72450;42.008;21.356;2024-02-14T02:49:21;9.25;;;3.53;;
82722;SDS011;72450;42.008;21.356;2024-02-14T02:51:47;6.85;;;3.47;;
82722;SDS011;72450;42.008;21.356;2024-02-14T02:54:13;7.55;;;3.53;;
82722;SDS011;72450;42.008;21.356;2024-02-14T02:56:39;5.55;;;2.50;;
82722;SDS011;72450;42.008;21.356;2024-02-14T02:59:08;3.75;;;2.60;;
82722;SDS011;72450;42.008;21.356;2024-02-14T03:01:35;6.47;;;3.25;;
82722;SDS011;72450;42.008;21.356;2024-02-14T03:04:01;5.60;;;3.33;;
82722;SDS011;72450;42.008;21.356;2024-02-14T03:06:27;5.68;;;2.90;;
82722;SDS011;72450;42.008;21.356;2024-02-14T03:08:53;4.40;;;3.30;;
82722;SDS011;72450;42.008;21.356;2024-02-14T03:11:22;6.47;;;2.70;;
82722;SDS011;72450;42.008;21.356;2024-02-14T03:13:48;5.30;;;2.95;;
82722;SDS011;72450;42.008;21.356;2024-02-14T03:16:14;4.00;;;2.78;;
82722;SDS011;72450;42.008;21.356;2024-02-14T03:18:42;4.40;;;2.72;;
82722;SDS011;72450;42.008;21.356;2024-02-14T03:21:08;5.53;;;3.13;;
82722;SDS011;72450;42.008;21.356;2024-02-14T03:23:34;5.30;;;3.40;;
82722;SDS011;72450;42.008;21.356;2024-02-14T03:26:00;5.57;;;2.90;;
82722;SDS011;72450;42.008;21.356;2024-02-14T03:28:27;5.55;;;3.15;;
82722;SDS011;72450;42.008;21.356;2024-02-14T03:30:54;4.88;;;3.13;;
82722;SDS011;72450;42.008;21.356;2024-02-14T03:33:22;6.43;;;3.17;;
82722;SDS011;72450;42.008;21.356;2024-02-14T03:35:48;5.85;;;3.17;;
82722;SDS011;72450;42.008;21.356;2024-02-14T03:38:24;5.07;;;3.08;;
82722;SDS011;72450;42.008;21.356;2024-02-14T03:40:50;5.53;;;3.05;;
82722;SDS011;72450;42.008;21.356;2024-02-14T03:43:16;4.47;;;2.50;;
82722;SDS011;72450;42.008;21.356;2024-02-14T03:45:42;5.97;;;3.28;;
82722;SDS011;72450;42.008;21.356;2024-02-14T03:50:40;5.38;;;3.28;;
82722;SDS011;72450;42.008;21.356;2024-02-14T03:53:07;6.05;;;3.42;;
82722;SDS011;72450;42.008;21.356;2024-02-14T03:55:36;5.70;;;3.75;;
82722;SDS011;72450;42.008;21.356;2024-02-14T03:58:03;6.63;;;3.45;;
82722;SDS011;72450;42.008;21.356;2024-02-14T04:00:33;9.23;;;3.03;;
82722;SDS011;72450;42.008;21.356;2024-02-14T04:03:02;5.15;;;3.22;;
82722;SDS011;72450;42.008;21.356;2024-02-14T04:05:28;6.70;;;3.17;;
82722;SDS011;72450;42.008;21.356;2024-02-14T04:07:55;7.30;;;3.30;;
82722;SDS011;72450;42.008;21.356;2024-02-14T04:10:21;4.50;;;2.88;;
82722;SDS011;72450;42.008;21.356;2024-02-14T04:12:47;6.20;;;2.83;;
82722;SDS011;72450;42.008;21.356;2024-02-14T04:15:14;4.88;;;2.58;;
82722;SDS011;72450;42.008;21.356;2024-02-14T04:17:40;4.68;;;2.50;;
82722;SDS011;72450;42.008;21.356;2024-02-14T04:20:06;4.47;;;3.05;;
82722;SDS011;72450;42.008;21.356;2024-02-14T04:22:32;6.70;;;3.33;;
82722;SDS011;72450;42.008;21.356;2024-02-14T04:24:58;5.93;;;3.65;;
82722;SDS011;72450;42.008;21.356;2024-02-14T04:27:24;4.25;;;3.15;;
82722;SDS011;72450;42.008;21.356;2024-02-14T04:29:50;6.63;;;2.92;;
82722;SDS011;72450;42.008;21.356;2024-02-14T04:32:16;4.32;;;3.65;;
82722;SDS011;72450;42.008;21.356;2024-02-14T04:34:44;4.95;;;2.63;;
82722;SDS011;72450;42.008;21.356;2024-02-14T04:37:10;5.82;;;2.88;;
82722;SDS011;72450;42.008;21.356;2024-02-14T04:39:39;8.80;;;4.10;;
82722;SDS011;72450;42.008;21.356;2024-02-14T04:42:05;6.88;;;3.40;;
82722;SDS011;72450;42.008;21.356;2024-02-14T04:44:31;6.20;;;3.28;;
82722;SDS011;72450;42.008;21.356;2024-02-14T04:46:57;6.00;;;4.47;;
82722;SDS011;72450;42.008;21.356;2024-02-14T04:49:24;5.63;;;3.70;;
82722;SDS011;72450;42.008;21.356;2024-02-14T04:51:51;6.30;;;3.08;;
82722;SDS011;72450;42.008;21.356;2024-02-14T04:54:17;8.43;;;3.83;;
82722;SDS011;72450;42.008;21.356;2024-02-14T04:56:43;5.90;;;4.00;;
82722;SDS011;72450;42.008;21.356;2024-02-14T04:59:10;9.05;;;4.13;;
82722;SDS011;72450;42.008;21.356;2024-02-14T05:01:36;8.68;;;3.80;;
82722;SDS011;72450;42.008;21.356;2024-02-14T05:04:04;5.72;;;3.70;;
82722;SDS011;72450;42.008;21.356;2024-02-14T05:06:30;6.00;;;3.45;;
82722;SDS011;72450;42.008;21.356;2024-02-14T05:08:56;5.20;;;3.30;;
82722;SDS011;72450;42.008;21.356;2024-02-14T05:11:22;7.03;;;4.57;;
82722;SDS011;72450;42.008;21.356;2024-02-14T05:13:49;12.15;;;4.03;;
82722;SDS011;72450;42.008;21.356;2024-02-14T05:16:21;7.65;;;4.50;;
82722;SDS011;72450;42.008;21.356;2024-02-14T05:18:47;8.98;;;4.85;;
82722;SDS011;72450;42.008;21.356;2024-02-14T05:21:13;5.82;;;3.03;;
82722;SDS011;72450;42.008;21.356;2024-02-14T05:23:40;7.03;;;3.92;;
82722;SDS011;72450;42.008;21.356;2024-02-14T05:26:06;9.27;;;5.00;;
82722;SDS011;72450;42.008;21.356;2024-02-14T05:28:32;8.02;;;4.65;;
82722;SDS011;72450;42.008;21.356;2024-02-14T05:31:01;7.60;;;4.45;;
82722;SDS011;72450;42.008;21.356;2024-02-14T05:33:28;8.88;;;4.93;;
82722;SDS011;72450;42.008;21.356;2024-02-14T05:35:54;8.80;;;5.20;;
82722;SDS011;72450;42.008;21.356;2024-02-14T05:38:20;15.05;;;7.90;;
82722;SDS011;72450;42.008;21.356;2024-02-14T05:40:46;20.55;;;10.55;;
82722;SDS011;72450;42.008;21.356;2024-02-14T05:43:13;18.80;;;11.30;;
82722;SDS011;72450;42.008;21.356;2024-02-14T05:45:39;14.90;;;8.48;;
82722;SDS011;72450;42.008;21.356;2024-02-14T05:48:06;15.98;;;9.13;;
82722;SDS011;72450;42.008;21.356;2024-02-14T05:50:32;10.85;;;5.70;;
82722;SDS011;72450;42.008;21.356;2024-02-14T05:52:58;11.00;;;6.50;;
82722;SDS011;72450;42.008;21.356;2024-02-14T05:55:25;8.65;;;5.25;;
82722;SDS011;72450;42.008;21.356;2024-02-14T05:57:51;7.65;;;4.82;;
82722;SDS011;72450;42.008;21.356;2024-02-14T06:00:21;9.27;;;5.70;;
82722;SDS011;72450;42.008;21.356;2024-02-14T06:02:47;10.20;;;5.78;;
82722;SDS011;72450;42.008;21.356;2024-02-14T06:05:14;10.13;;;5.20;;
82722;SDS011;72450;42.008;21.356;2024-02-14T06:07:41;10.73;;;4.78;;
82722;SDS011;72450;42.008;21.356;2024-02-14T06:10:10;5.60;;;3.38;;
82722;SDS011;72450;42.008;21.356;2024-02-14T06:12:36;8.27;;;4.50;;
82722;SDS011;72450;42.008;21.356;2024-02-14T06:15:04;11.50;;;3.97;;
82722;SDS011;72450;42.008;21.356;2024-02-14T06:17:30;8.15;;;4.05;;
82722;SDS011;72450;42.008;21.356;2024-02-14T06:19:56;8.15;;;3.60;;
82722;SDS011;72450;42.008;21.356;2024-02-14T06:22:23;6.78;;;4.15;;
82722;SDS011;72450;42.008;21.356;2024-02-14T06:24:50;6.90;;;4.65;;
82722;SDS011;72450;42.008;21.356;2024-02-14T06:27:16;7.72;;;4.75;;
82722;SDS011;72450;42.008;21.356;2024-02-14T06:29:43;7.63;;;3.70;;
82722;SDS011;72450;42.008;21.356;2024-02-14T06:32:09;7.70;;;3.83;;
82722;SDS011;72450;42.008;21.356;2024-02-14T06:34:35;5.03;;;3.58;;
82722;SDS011;72450;42.008;21.356;2024-02-14T06:37:01;6.90;;;4.07;;
82722;SDS011;72450;42.008;21.356;2024-02-14T06:39:27;5.93;;;4.07;;
82722;SDS011;72450;42.008;21.356;2024-02-14T06:41:53;9.95;;;5.55;;
82722;SDS011;72450;42.008;21.356;2024-02-14T06:44:19;14.18;;;7.82;;
82722;SDS011;72450;42.008;21.356;2024-02-14T06:46:45;8.38;;;5.20;;
82722;SDS011;72450;42.008;21.356;2024-02-14T06:49:11;12.20;;;5.20;;
82722;SDS011;72450;42.008;21.356;2024-02-14T06:51:37;11.93;;;5.90;;
82722;SDS011;72450;42.008;21.356;2024-02-14T06:54:04;9.63;;;5.32;;
82722;SDS011;72450;42.008;21.356;2024-02-14T06:56:30;10.73;;;5.75;;
82722;SDS011;72450;42.008;21.356;2024-02-14T06:58:56;7.90;;;5.15;;
82722;SDS011;72450;42.008;21.356;2024-02-14T07:01:28;15.40;;;6.35;;
82722;SDS011;72450;42.008;21.356;2024-02-14T07:03:54;8.90;;;4.15;;
82722;SDS011;72450;42.008;21.356;2024-02-14T07:06:20;6.63;;;4.15;;
82722;SDS011;72450;42.008;21.356;2024-02-14T07:08:47;7.82;;;5.65;;
82722;SDS011;72450;42.008;21.356;2024-02-14T07:11:13;6.70;;;3.47;;
82722;SDS011;72450;42.008;21.356;2024-02-14T07:13:40;6.88;;;3.95;;
82722;SDS011;72450;42.008;21.356;2024-02-14T07:16:07;6.18;;;4.13;;
82722;SDS011;72450;42.008;21.356;2024-02-14T07:18:36;8.63;;;4.82;;
82722;SDS011;72450;42.008;21.356;2024-02-14T07:21:02;9.52;;;5.25;;
82722;SDS011;72450;42.008;21.356;2024-02-14T07:23:29;10.85;;;6.75;;
82722;SDS011;72450;42.008;21.356;2024-02-14T07:25:55;16.10;;;7.78;;
82722;SDS011;72450;42.008;21.356;2024-02-14T07:28:21;7.72;;;4.30;;
82722;SDS011;72450;42.008;21.356;2024-02-14T07:30:47;11.38;;;6.38;;
82722;SDS011;72450;42.008;21.356;2024-02-14T07:33:13;9.68;;;5.22;;
82722;SDS011;72450;42.008;21.356;2024-02-14T07:35:39;6.50;;;3.80;;
82722;SDS011;72450;42.008;21.356;2024-02-14T07:38:05;9.48;;;4.72;;
82722;SDS011;72450;42.008;21.356;2024-02-14T07:40:31;7.35;;;4.30;;
82722;SDS011;72450;42.008;21.356;2024-02-14T07:42:58;6.57;;;4.43;;
82722;SDS011;72450;42.008;21.356;2024-02-14T07:45:24;8.80;;;4.82;;
82722;SDS011;72450;42.008;21.356;2024-02-14T07:47:50;6.95;;;4.70;;
82722;SDS011;72450;42.008;21.356;2024-02-14T07:50:16;7.53;;;4.53;;
82722;SDS011;72450;42.008;21.356;2024-02-14T07:52:43;7.68;;;4.18;;
82722;SDS011;72450;42.008;21.356;2024-02-14T07:55:09;8.70;;;5.10;;
82722;SDS011;72450;42.008;21.356;2024-02-14T07:57:37;9.35;;;4.90;;
82722;SDS011;72450;42.008;21.356;2024-02-14T08:00:04;8.20;;;5.05;;
82722;SDS011;72450;42.008;21.356;2024-02-14T08:02:32;7.70;;;4.15;;
82722;SDS011;72450;42.008;21.356;2024-02-14T08:04:59;8.32;;;4.35;;
82722;SDS011;72450;42.008;21.356;2024-02-14T08:07:25;9.27;;;4.90;;
82722;SDS011;72450;42.008;21.356;2024-02-14T08:09:51;5.20;;;3.10;;
82722;SDS011;72450;42.008;21.356;2024-02-14T08:12:17;7.03;;;3.60;;
82722;SDS011;72450;42.008;21.356;2024-02-14T08:14:43;6.38;;;3.72;;
82722;SDS011;72450;42.008;21.356;2024-02-14T08:17:09;9.27;;;4.63;;
82722;SDS011;72450;42.008;21.356;2024-02-14T08:19:35;9.90;;;5.57;;
82722;SDS011;72450;42.008;21.356;2024-02-14T08:22:01;8.20;;;5.20;;
82722;SDS011;72450;42.008;21.356;2024-02-14T08:24:27;8.57;;;4.93;;
82722;SDS011;72450;42.008;21.356;2024-02-14T08:26:54;9.65;;;4.28;;
82722;SDS011;72450;42.008;21.356;2024-02-14T08:29:20;9.02;;;5.35;;
82722;SDS011;72450;42.008;21.356;2024-02-14T08:31:46;8.38;;;4.40;;
82722;SDS011;72450;42.008;21.356;2024-02-14T08:34:13;8.73;;;6.13;;
82722;SDS011;72450;42.008;21.356;2024-02-14T08:36:39;8.52;;;4.85;;
82722;SDS011;72450;42.008;21.356;2024-02-14T08:39:09;10.40;;;6.40;;
82722;SDS011;72450;42.008;21.356;2024-02-14T08:41:36;7.05;;;4.45;;
82722;SDS011;72450;42.008;21.356;2024-02-14T08:44:03;5.45;;;3.38;;
82722;SDS011;72450;42.008;21.356;2024-02-14T08:46:30;9.80;;;5.93;;
82722;SDS011;72450;42.008;21.356;2024-02-14T08:48:56;9.30;;;5.18;;
82722;SDS011;72450;42.008;21.356;2024-02-14T08:51:22;9.23;;;5.00;;
82722;SDS011;72450;42.008;21.356;2024-02-14T08:53:49;8.27;;;5.68;;
82722;SDS011;72450;42.008;21.356;2024-02-14T08:56:19;5.38;;;3.78;;
82722;SDS011;72450;42.008;21.356;2024-02-14T08:58:47;9.82;;;5.40;;
82722;SDS011;72450;42.008;21.356;2024-02-14T09:01:13;6.95;;;4.00;;
82722;SDS011;72450;42.008;21.356;2024-02-14T09:03:40;9.00;;;5.43;;
82722;SDS011;72450;42.008;21.356;2024-02-14T09:06:08;8.20;;;4.85;;
82722;SDS011;72450;42.008;21.356;2024-02-14T09:08:34;8.60;;;4.93;;
82722;SDS011;72450;42.008;21.356;2024-02-14T09:11:00;8.23;;;5.38;;
82722;SDS011;72450;42.008;21.356;2024-02-14T09:13:26;10.15;;;5.47;;
82722;SDS011;72450;42.008;21.356;2024-02-14T09:15:52;9.52;;;5.10;;
82722;SDS011;72450;42.008;21.356;2024-02-14T09:18:19;13.40;;;6.07;;
82722;SDS011;72450;42.008;21.356;2024-02-14T09:20:45;10.13;;;4.90;;
82722;SDS011;72450;42.008;21.356;2024-02-14T09:23:12;9.45;;;4.03;;
82722;SDS011;72450;42.008;21.356;2024-02-14T09:25:45;6.90;;;3.97;;
82722;SDS011;72450;42.008;21.356;2024-02-14T09:28:12;5.43;;;3.38;;
82722;SDS011;72450;42.008;21.356;2024-02-14T09:30:39;4.22;;;2.60;;
82722;SDS011;72450;42.008;21.356;2024-02-14T09:33:05;9.95;;;4.60;;
82722;SDS011;72450;42.008;21.356;2024-02-14T09:35:31;9.32;;;4.63;;
82722;SDS011;72450;42.008;21.356;2024-02-14T09:37:57;7.97;;;4.38;;
82722;SDS011;72450;42.008;21.356;2024-02-14T09:40:24;11.32;;;4.40;;
82722;SDS011;72450;42.008;21.356;2024-02-14T09:42:54;7.97;;;4.50;;
82722;SDS011;72450;42.008;21.356;2024-02-14T09:45:26;11.10;;;6.13;;
82722;SDS011;72450;42.008;21.356;2024-02-14T09:47:53;13.73;;;7.40;;
82722;SDS011;72450;42.008;21.356;2024-02-14T09:50:20;7.72;;;4.60;;
82722;SDS011;72450;42.008;21.356;2024-02-14T09:52:49;5.40;;;3.63;;
82722;SDS011;72450;42.008;21.356;2024-02-14T09:55:15;4.88;;;3.28;;
82722;SDS011;72450;42.008;21.356;2024-02-14T09:57:42;8.50;;;5.57;;
82722;SDS011;72450;42.008;21.356;2024-02-14T10:00:12;9.55;;;5.53;;
82722;SDS011;72450;42.008;21.356;2024-02-14T10:02:41;12.07;;;6.25;;
82722;SDS011;72450;42.008;21.356;2024-02-14T10:05:07;9.93;;;5.97;;
82722;SDS011;72450;42.008;21.356;2024-02-14T10:07:43;11.32;;;4.82;;
82722;SDS011;72450;42.008;21.356;2024-02-14T10:10:09;9.00;;;4.05;;
82722;SDS011;72450;42.008;21.356;2024-02-14T10:12:36;13.40;;;7.75;;
82722;SDS011;72450;42.008;21.356;2024-02-14T10:15:03;12.15;;;5.82;;
82722;SDS011;72450;42.008;21.356;2024-02-14T10:17:29;7.70;;;5.20;;
82722;SDS011;72450;42.008;21.356;2024-02-14T10:19:58;7.68;;;3.85;;
82722;SDS011;72450;42.008;21.356;2024-02-14T10:22:25;5.07;;;3.90;;
82722;SDS011;72450;42.008;21.356;2024-02-14T10:24:57;6.05;;;3.47;;
82722;SDS011;72450;42.008;21.356;2024-02-14T10:27:25;5.63;;;3.90;;
82722;SDS011;72450;42.008;21.356;2024-02-14T10:29:51;6.47;;;3.17;;
82722;SDS011;72450;42.008;21.356;2024-02-14T10:32:17;10.35;;;4.43;;
82722;SDS011;72450;42.008;21.356;2024-02-14T10:34:43;8.02;;;4.25;;
82722;SDS011;72450;42.008;21.356;2024-02-14T10:37:13;8.18;;;3.90;;
82722;SDS011;72450;42.008;21.356;2024-02-14T10:39:41;12.13;;;6.60;;
82722;SDS011;72450;42.008;21.356;2024-02-14T10:42:08;10.27;;;4.82;;
82722;SDS011;72450;42.008;21.356;2024-02-14T10:44:34;8.48;;;3.60;;
82722;SDS011;72450;42.008;21.356;2024-02-14T10:47:02;11.60;;;4.95;;
82722;SDS011;72450;42.008;21.356;2024-02-14T10:51:54;6.38;;;3.58;;
82722;SDS011;72450;42.008;21.356;2024-02-14T10:54:22;3.90;;;2.67;;
82722;SDS011;72450;42.008;21.356;2024-02-14T10:56:49;5.40;;;3.67;;
82722;SDS011;72450;42.008;21.356;2024-02-14T11:01:43;3.63;;;2.28;;
82722;SDS011;72450;42.008;21.356;2024-02-14T11:04:10;3.35;;;2.13;;
82722;SDS011;72450;42.008;21.356;2024-02-14T11:06:44;4.57;;;2.25;;
82722;SDS011;72450;42.008;21.356;2024-02-14T11:09:11;2.03;;;1.83;;
82722;SDS011;72450;42.008;21.356;2024-02-14T11:11:40;6.28;;;3.60;;
82722;SDS011;72450;42.008;21.356;2024-02-14T11:14:06;4.72;;;2.30;;
82722;SDS011;72450;42.008;21.356;2024-02-14T11:16:32;4.40;;;2.38;;
82722;SDS011;72450;42.008;21.356;2024-02-14T11:19:08;5.82;;;3.22;;
82722;SDS011;72450;42.008;21.356;2024-02-14T11:21:35;6.00;;;3.25;;
82722;SDS011;72450;42.008;21.356;2024-02-14T11:24:05;4.05;;;2.53;;
82722;SDS011;72450;42.008;21.356;2024-02-14T11:26:52;4.70;;;2.30;;
82722;SDS011;72450;42.008;21.356;2024-02-14T11:29:21;3.95;;;2.83;;
82722;SDS011;72450;42.008;21.356;2024-02-14T11:31:47;4.75;;;2.70;;
82722;SDS011;72450;42.008;21.356;2024-02-14T11:34:14;4.70;;;2.67;;
82722;SDS011;72450;42.008;21.356;2024-02-14T11:36:44;4.13;;;2.97;;
82722;SDS011;72450;42.008;21.356;2024-02-14T11:39:11;13.40;;;7.90;;
82722;SDS011;72450;42.008;21.356;2024-02-14T11:41:37;6.80;;;3.55;;
82722;SDS011;72450;42.008;21.356;2024-02-14T11:44:04;4.18;;;2.63;;
82722;SDS011;72450;42.008;21.356;2024-02-14T11:46:31;4.32;;;2.58;;
82722;SDS011;72450;42.008;21.356;2024-02-14T11:48:58;3.80;;;2.75;;
82722;SDS011;72450;42.008;21.356;2024-02-14T11:51:26;5.38;;;2.53;;
82722;SDS011;72450;42.008;21.356;2024-02-14T11:53:52;2.95;;;2.20;;
82722;SDS011;72450;42.008;21.356;2024-02-14T11:56:18;4.53;;;2.80;;
82722;SDS011;72450;42.008;21.356;2024-02-14T11:58:47;3.47;;;2.60;;
82722;SDS011;72450;42.008;21.356;2024-02-14T12:01:16;7.40;;;3.33;;
82722;SDS011;72450;42.008;21.356;2024-02-14T12:03:42;4.13;;;2.40;;
82722;SDS011;72450;42.008;21.356;2024-02-14T12:06:09;6.03;;;2.58;;
82722;SDS011;72450;42.008;21.356;2024-02-14T12:08:35;6.32;;;3.85;;
82722;SDS011;72450;42.008;21.356;2024-02-14T12:11:01;6.43;;;3.95;;
82722;SDS011;72450;42.008;21.356;2024-02-14T12:13:28;4.05;;;2.70;;
82722;SDS011;72450;42.008;21.356;2024-02-14T12:16:02;2.45;;;1.80;;
82722;SDS011;72450;42.008;21.356;2024-02-14T12:18:29;4.97;;;3.33;;
82722;SDS011;72450;42.008;21.356;2024-02-14T12:21:07;4.88;;;3.25;;
82722;SDS011;72450;42.008;21.356;2024-02-14T12:23:33;5.28;;;3.10;;
82722;SDS011;72450;42.008;21.356;2024-02-14T12:26:03;6.22;;;4.03;;
82722;SDS011;72450;42.008;21.356;2024-02-14T12:28:30;6.30;;;3.90;;
82722;SDS011;72450;42.008;21.356;2024-02-14T12:30:56;3.55;;;2.00;;
82722;SDS011;72450;42.008;21.356;2024-02-14T12:33:23;3.25;;;2.13;;
82722;SDS011;72450;42.008;21.356;2024-02-14T12:35:49;3.05;;;2.20;;
82722;SDS011;72450;42.008;21.356;2024-02-14T12:38:16;4.40;;;3.03;;
82722;SDS011;72450;42.008;21.356;2024-02-14T12:40:43;4.80;;;2.95;;
82722;SDS011;72450;42.008;21.356;2024-02-14T12:43:10;3.75;;;2.58;;
82722;SDS011;72450;42.008;21.356;2024-02-14T12:45:36;6.07;;;3.83;;
82722;SDS011;72450;42.008;21.356;2024-02-14T12:48:03;6.82;;;4.10;;
82722;SDS011;72450;42.008;21.356;2024-02-14T12:50:30;4.10;;;2.42;;
82722;SDS011;72450;42.008;21.356;2024-02-14T12:52:56;5.35;;;2.53;;
82722;SDS011;72450;42.008;21.356;2024-02-14T12:55:23;5.72;;;2.55;;
82722;SDS011;72450;42.008;21.356;2024-02-14T13:00:16;4.57;;;2.63;;
82722;SDS011;72450;42.008;21.356;2024-02-14T13:02:42;3.97;;;2.80;;
82722;SDS011;72450;42.008;21.356;2024-02-14T13:05:28;3.33;;;2.53;;
82722;SDS011;72450;42.008;21.356;2024-02-14T13:07:54;4.57;;;3.20;;
82722;SDS011;72450;42.008;21.356;2024-02-14T13:10:20;5.13;;;2.65;;
82722;SDS011;72450;42.008;21.356;2024-02-14T13:12:47;4.32;;;2.65;;
82722;SDS011;72450;42.008;21.356;2024-02-14T13:15:13;5.32;;;2.20;;
82722;SDS011;72450;42.008;21.356;2024-02-14T13:17:39;4.75;;;2.67;;
82722;SDS011;72450;42.008;21.356;2024-02-14T13:20:05;3.42;;;1.95;;
82722;SDS011;72450;42.008;21.356;2024-02-14T13:22:31;8.15;;;3.33;;
82722;SDS011;72450;42.008;21.356;2024-02-14T13:24:58;4.30;;;1.83;;
82722;SDS011;72450;42.008;21.356;2024-02-14T13:27:25;3.25;;;2.03;;
82722;SDS011;72450;42.008;21.356;2024-02-14T13:29:51;4.57;;;2.40;;
82722;SDS011;72450;42.008;21.356;2024-02-14T13:32:17;4.57;;;2.45;;
82722;SDS011;72450;42.008;21.356;2024-02-14T13:34:44;6.78;;;4.38;;
82722;SDS011;72450;42.008;21.356;2024-02-14T13:37:10;7.05;;;2.80;;
82722;SDS011;72450;42.008;21.356;2024-02-14T13:39:36;4.07;;;2.20;;
82722;SDS011;72450;42.008;21.356;2024-02-14T13:42:02;9.82;;;4.32;;
82722;SDS011;72450;42.008;21.356;2024-02-14T13:44:28;10.70;;;4.22;;
82722;SDS011;72450;42.008;21.356;2024-02-14T13:46:54;8.90;;;3.67;;
82722;SDS011;72450;42.008;21.356;2024-02-14T13:49:21;3.90;;;2.78;;
82722;SDS011;72450;42.008;21.356;2024-02-14T13:51:51;6.03;;;3.80;;
82722;SDS011;72450;42.008;21.356;2024-02-14T13:54:17;7.57;;;4.82;;
82722;SDS011;72450;42.008;21.356;2024-02-14T13:56:44;6.05;;;4.38;;
82722;SDS011;72450;42.008;21.356;2024-02-14T13:59:10;5.82;;;3.60;;
82722;SDS011;72450;42.008;21.356;2024-02-14T14:01:36;4.97;;;2.78;;
82722;SDS011;72450;42.008;21.356;2024-02-14T14:04:03;6.05;;;3.38;;
82722;SDS011;72450;42.008;21.356;2024-02-14T14:06:29;3.17;;;2.03;;
82722;SDS011;72450;42.008;21.356;2024-02-14T14:08:55;3.03;;;2.05;;
82722;SDS011;72450;42.008;21.356;2024-02-14T14:11:21;6.45;;;3.75;;
82722;SDS011;72450;42.008;21.356;2024-02-14T14:13:48;6.72;;;2.58;;
82722;SDS011;72450;42.008;21.356;2024-02-14T14:16:14;11.15;;;3.95;;
82722;SDS011;72450;42.008;21.356;2024-02-14T14:18:40;5.97;;;3.40;;
82722;SDS011;72450;42.008;21.356;2024-02-14T14:21:06;5.22;;;3.00;;
82722;SDS011;72450;42.008;21.356;2024-02-14T14:23:33;7.72;;;4.45;;
82722;SDS011;72450;42.008;21.356;2024-02-14T14:25:59;4.65;;;3.25;;
82722;SDS011;72450;42.008;21.356;2024-02-14T14:28:26;3.83;;;2.83;;
82722;SDS011;72450;42.008;21.356;2024-02-14T14:30:56;3.78;;;2.80;;
82722;SDS011;72450;42.008;21.356;2024-02-14T14:33:22;6.22;;;3.30;;
82722;SDS011;72450;42.008;21.356;2024-02-14T14:35:50;3.95;;;2.80;;
82722;SDS011;72450;42.008;21.356;2024-02-14T14:38:20;3.90;;;2.85;;
82722;SDS011;72450;42.008;21.356;2024-02-14T14:40:46;11.98;;;7.28;;